Bealach na Ba, United Kingdom
Current Conditions -  °F | °C
As of 12:20 AM on Monday 26 Jan 2015 (Local Time) from EGPO Reporting Station
Few Clouds Few Clouds  
Wind Chill: 34°   Ceiling: Unl
Heat Index: 39°   Visibility: 6mi
Dew Point: 34°   Wind: 8mph
Humidity: 81%   Direction: 250°WSW
Pressure: 29.85"   Gusts: NA
Location:  57.42°N, 5.69°W
Report Text: EGPO 260020Z AUTO 25007KT 9999 FEW030/// 04/01 Q1011
Loading
Personal Weather Stations






























Interactive Weather Map New forecast layout! Learn more

10-Day Weather Forecast

Advertisements
Track Severe Weather on mobile